Terminal Aerodrome Forecast
Issued by NWS Grand Forks, ND

Home | Current Version | Previous Version | Graphics & Text | Print | Product List | Glossary On
Versions: 1 2 3 4 5 6 7 8 9 10 11 12 13 14
533
FTUS43 KFGF 301120
TAFFAR
TAF
KFAR 301120Z 3012/0112 34011KT 4SM -SN OVC007
      TEMPO 3012/3016 2SM -SN
     FM301800 34012KT P6SM -RA OVC008
     FM010100 34011KT 6SM -RASN OVC010
     FM010400 34010KT P6SM -FZDZ OVC010=

USA.gov is the U.S. government's official web portal to all federal, state and local government web resources and services.